Aviation Digital Data Service (ADDS)

Output produced by TAFs form (1227 UTC 28 July 2016)
found at http://aviationweather.gov/adds/tafs/
 
KMAF 281120Z 2812/2912 20007KT P6SM FEW120 
     FM281800 12008KT P6SM SCT080